createdAt,value
2019-04-12T00:00:24.626Z,4.44
2019-04-12T00:02:51.359Z,4.04
2019-04-12T00:05:18.090Z,4.01
2019-04-12T00:07:44.826Z,3.82
2019-04-12T00:10:12.385Z,3.77
2019-04-12T00:12:39.114Z,3.75
2019-04-12T00:15:05.846Z,3.66
2019-04-12T00:17:32.569Z,3.54
2019-04-12T00:19:59.298Z,3.55
2019-04-12T00:22:26.052Z,3.54
2019-04-12T00:24:52.755Z,3.32
2019-04-12T00:27:19.797Z,3.16
2019-04-12T00:29:46.202Z,3.27
2019-04-12T00:32:12.946Z,3.00
2019-04-12T00:34:39.686Z,3.01
2019-04-12T00:37:06.433Z,2.98
2019-04-12T00:39:33.186Z,2.92
2019-04-12T00:42:00.080Z,2.80
2019-04-12T00:44:26.638Z,2.53
2019-04-12T00:46:53.526Z,2.48
2019-04-12T00:49:20.247Z,2.49
2019-04-12T00:51:46.999Z,2.44
2019-04-12T00:54:14.380Z,2.51
2019-04-12T00:56:40.494Z,2.35
2019-04-12T00:59:07.222Z,2.47
2019-04-12T01:01:41.322Z,2.48
2019-04-12T01:04:15.824Z,2.56
2019-04-12T01:06:39.398Z,2.73
2019-04-12T01:09:06.960Z,2.51
2019-04-12T01:11:33.686Z,2.51
2019-04-12T01:14:00.466Z,2.40
2019-04-12T01:16:30.128Z,2.36
2019-04-12T01:18:53.973Z,2.37
2019-04-12T01:21:20.731Z,2.37
2019-04-12T01:23:47.466Z,2.24
2019-04-12T01:26:15.401Z,2.32
2019-04-12T01:28:40.947Z,2.32
2019-04-12T01:31:07.689Z,2.08
2019-04-12T01:33:34.419Z,1.95
2019-04-12T01:36:01.257Z,1.98
2019-04-12T01:38:27.998Z,2.08
2019-04-12T01:40:54.747Z,1.82
2019-04-12T01:43:21.462Z,1.70
2019-04-12T01:45:48.229Z,1.47
2019-04-12T01:48:14.949Z,1.65
2019-04-12T01:50:41.710Z,1.67
2019-04-12T01:53:08.434Z,1.72
2019-04-12T01:55:35.158Z,1.48
2019-04-12T01:58:01.934Z,1.46
2019-04-12T02:00:28.658Z,1.51
2019-04-12T02:02:55.398Z,1.62
2019-04-12T02:05:22.126Z,1.58
2019-04-12T02:07:48.875Z,1.49
2019-04-12T02:10:17.109Z,1.34
2019-04-12T02:12:43.845Z,1.46
2019-04-12T02:15:10.605Z,1.20
2019-04-12T02:17:37.350Z,1.38
2019-04-12T02:20:05.026Z,1.29
2019-04-12T02:22:31.766Z,1.36
2019-04-12T02:24:58.506Z,1.27
2019-04-12T02:27:25.263Z,1.31
2019-04-12T02:29:51.996Z,1.23
2019-04-12T02:32:26.514Z,1.39
2019-04-12T02:34:54.010Z,1.25
2019-04-12T02:37:20.750Z,1.22
2019-04-12T02:39:47.488Z,1.14
2019-04-12T02:42:14.236Z,1.34
2019-04-12T02:44:41.029Z,1.47
2019-04-12T02:47:18.753Z,1.22
2019-04-12T02:49:52.334Z,1.25
2019-04-12T02:52:25.601Z,1.27
2019-04-12T02:55:03.173Z,1.17
2019-04-12T02:57:37.244Z,1.39
2019-04-12T03:00:06.357Z,1.35
2019-04-12T03:02:33.110Z,1.19
2019-04-12T03:04:59.838Z,1.40
2019-04-12T03:07:26.602Z,1.41
2019-04-12T03:09:53.323Z,1.54
2019-04-12T03:12:20.139Z,1.62
2019-04-12T03:14:46.859Z,1.55
2019-04-12T03:17:13.610Z,1.35
2019-04-12T03:19:40.670Z,1.40
2019-04-12T03:22:07.437Z,1.26
2019-04-12T03:24:34.619Z,1.27
2019-04-12T03:27:01.310Z,1.11
2019-04-12T03:29:28.072Z,1.27
2019-04-12T03:31:54.805Z,1.29
2019-04-12T03:34:21.627Z,1.17
2019-04-12T03:36:48.396Z,1.31
2019-04-12T03:39:15.141Z,1.28
2019-04-12T03:41:41.879Z,1.21
2019-04-12T03:44:08.605Z,1.03
2019-04-12T03:46:35.350Z,1.13
2019-04-12T03:49:02.084Z,1.18
2019-04-12T03:51:28.930Z,1.14
2019-04-12T03:53:55.646Z,1.02
2019-04-12T03:56:22.374Z,1.13
2019-04-12T03:58:49.128Z,1.11
2019-04-12T04:01:16.723Z,0.93
2019-04-12T04:03:43.483Z,0.98
2019-04-12T04:06:10.215Z,0.88
2019-04-12T04:08:36.956Z,0.88
2019-04-12T04:11:03.707Z,0.91
2019-04-12T04:13:30.763Z,0.89
2019-04-12T04:15:58.178Z,0.95
2019-04-12T04:18:26.480Z,0.85
2019-04-12T04:20:59.431Z,0.82
2019-04-12T04:23:34.498Z,0.81
2019-04-12T04:26:22.315Z,0.95
2019-04-12T04:28:42.922Z,1.00
2019-04-12T04:31:15.279Z,0.90
2019-04-12T04:33:42.138Z,0.87
2019-04-12T04:36:08.911Z,0.83
2019-04-12T04:38:35.758Z,0.96
2019-04-12T04:41:02.614Z,0.92
2019-04-12T04:43:29.749Z,0.98
2019-04-12T04:45:56.570Z,1.00
2019-04-12T04:48:23.492Z,0.89
2019-04-12T04:50:50.303Z,0.95
2019-04-12T04:53:17.114Z,0.87
2019-04-12T04:55:43.994Z,0.93
2019-04-12T04:58:10.806Z,0.83
2019-04-12T05:00:37.639Z,0.86
2019-04-12T05:03:04.504Z,0.87
2019-04-12T05:05:31.337Z,0.86
2019-04-12T05:07:58.202Z,1.00
2019-04-12T05:10:25.490Z,1.02
2019-04-12T05:12:52.282Z,1.03
2019-04-12T05:15:19.104Z,1.11
2019-04-12T05:17:45.970Z,1.18
2019-04-12T05:20:12.787Z,1.14
2019-04-12T05:22:39.658Z,1.26
2019-04-12T05:25:07.298Z,1.43
2019-04-12T05:27:34.166Z,1.34
2019-04-12T05:30:00.985Z,1.47
2019-04-12T05:32:27.850Z,1.48
2019-04-12T05:34:54.659Z,1.46
2019-04-12T05:37:21.514Z,1.50
2019-04-12T05:39:48.350Z,1.51
2019-04-12T05:42:15.203Z,1.58
2019-04-12T05:44:42.030Z,1.61
2019-04-12T05:47:29.454Z,1.42
2019-04-12T05:50:03.417Z,1.71
2019-04-12T05:52:30.218Z,1.65
2019-04-12T05:54:57.038Z,1.68
2019-04-12T05:57:23.830Z,1.71
2019-04-12T05:59:50.618Z,1.88
2019-04-12T06:02:23.155Z,2.02
2019-04-12T06:04:49.959Z,2.19
2019-04-12T06:07:16.789Z,2.04
2019-04-12T06:09:43.507Z,2.16
2019-04-12T06:12:10.239Z,2.16
2019-04-12T06:14:36.966Z,2.23
2019-04-12T06:17:03.691Z,2.38
2019-04-12T06:19:30.653Z,2.51
2019-04-12T06:22:10.951Z,2.64
2019-04-12T06:24:37.698Z,2.48
2019-04-12T06:27:16.836Z,2.43
2019-04-12T06:29:45.035Z,2.53
2019-04-12T06:32:10.426Z,2.49
2019-04-12T06:34:37.163Z,2.77
2019-04-12T06:37:03.903Z,2.75
2019-04-12T06:39:30.647Z,2.79
2019-04-12T06:41:57.374Z,2.92
2019-04-12T06:44:24.126Z,2.93
2019-04-12T06:46:50.850Z,3.08
2019-04-12T06:49:17.582Z,3.12
2019-04-12T06:51:44.303Z,3.18
2019-04-12T06:54:11.035Z,3.41
2019-04-12T06:56:43.713Z,3.51
2019-04-12T06:59:10.460Z,3.68
2019-04-12T07:01:45.746Z,3.90
2019-04-12T07:04:23.746Z,3.92
2019-04-12T07:06:50.494Z,4.03
2019-04-12T07:09:17.226Z,4.03
2019-04-12T07:11:44.037Z,3.97
2019-04-12T07:14:10.794Z,4.21
2019-04-12T07:16:37.519Z,4.16
2019-04-12T07:19:04.270Z,4.18
2019-04-12T07:21:31.006Z,4.30
2019-04-12T07:23:57.753Z,4.30
2019-04-12T07:26:24.492Z,4.34
2019-04-12T07:28:51.255Z,4.42
2019-04-12T07:31:17.989Z,4.53
2019-04-12T07:33:44.736Z,4.59
2019-04-12T07:36:11.453Z,4.64
2019-04-12T07:38:38.194Z,4.70
2019-04-12T07:41:04.927Z,5.04
2019-04-12T07:43:31.674Z,5.22
2019-04-12T07:45:58.398Z,5.18
2019-04-12T07:48:25.149Z,5.01
2019-04-12T07:50:59.799Z,5.13
2019-04-12T07:53:29.244Z,5.29
2019-04-12T07:56:08.214Z,5.23
2019-04-12T07:58:42.488Z,5.38
2019-04-12T08:01:22.518Z,5.24
2019-04-12T08:04:09.908Z,5.66
2019-04-12T08:06:44.465Z,5.96
2019-04-12T08:09:11.218Z,5.96
2019-04-12T08:11:37.990Z,6.22
2019-04-12T08:14:04.750Z,6.34
2019-04-12T08:16:31.470Z,6.35
2019-04-12T08:18:58.216Z,6.10
2019-04-12T08:21:24.930Z,6.03
2019-04-12T08:23:51.666Z,6.14
2019-04-12T08:26:18.385Z,6.24
2019-04-12T08:28:45.130Z,6.38
2019-04-12T08:31:11.858Z,6.73
2019-04-12T08:33:38.674Z,6.66
2019-04-12T08:36:05.406Z,6.61
2019-04-12T08:38:32.159Z,6.77
2019-04-12T08:40:58.887Z,6.63
2019-04-12T08:43:25.626Z,6.59
2019-04-12T08:45:52.358Z,6.92
2019-04-12T08:48:19.230Z,7.05
2019-04-12T08:50:45.942Z,6.66
2019-04-12T08:53:12.714Z,6.81
2019-04-12T08:55:39.483Z,7.20
2019-04-12T08:58:11.170Z,7.20
2019-04-12T09:00:32.975Z,7.04
2019-04-12T09:02:59.665Z,6.93
2019-04-12T09:05:32.745Z,6.71
2019-04-12T09:07:53.325Z,7.05
2019-04-12T09:10:19.929Z,7.62
2019-04-12T09:12:46.666Z,7.92
2019-04-12T09:15:13.419Z,7.94
2019-04-12T09:17:40.158Z,8.31
2019-04-12T09:20:15.968Z,8.17
2019-04-12T09:22:50.970Z,7.95
2019-04-12T09:25:30.093Z,8.02
2019-04-12T09:27:56.802Z,8.41
2019-04-12T09:30:23.518Z,7.98
2019-04-12T09:32:50.325Z,7.71
2019-04-12T09:35:16.992Z,8.51
2019-04-12T09:37:43.746Z,8.17
2019-04-12T09:40:10.470Z,8.09
2019-04-12T09:42:37.213Z,8.30
2019-04-12T09:45:04.110Z,8.11
2019-04-12T09:47:30.830Z,8.27
2019-04-12T09:49:57.583Z,8.20
2019-04-12T09:52:24.294Z,8.45
2019-04-12T09:54:51.030Z,8.28
2019-04-12T09:57:17.754Z,8.06
2019-04-12T09:59:44.506Z,8.16
2019-04-12T10:02:14.130Z,8.48
2019-04-12T10:04:37.982Z,8.43
2019-04-12T10:07:04.778Z,8.43
2019-04-12T10:09:31.522Z,9.00
2019-04-12T10:11:58.266Z,8.82
2019-04-12T10:14:25.081Z,8.87
2019-04-12T10:16:51.740Z,8.74
2019-04-12T10:19:18.483Z,8.97
2019-04-12T10:21:45.325Z,9.17
2019-04-12T10:24:12.066Z,9.33
2019-04-12T10:26:38.919Z,9.68
2019-04-12T10:29:05.659Z,9.58
2019-04-12T10:31:32.391Z,9.20
2019-04-12T10:33:59.149Z,9.50
2019-04-12T10:36:25.869Z,9.25
2019-04-12T10:38:59.843Z,9.65
2019-04-12T10:41:26.619Z,9.44
2019-04-12T10:44:13.174Z,9.62
2019-04-12T10:46:39.899Z,10.36
2019-04-12T10:49:15.480Z,10.43
2019-04-12T10:51:57.323Z,10.01
2019-04-12T10:54:44.587Z,9.77
2019-04-12T10:57:11.362Z,10.29
2019-04-12T10:59:38.107Z,10.63
2019-04-12T11:02:04.818Z,10.31
2019-04-12T11:04:31.562Z,9.85
2019-04-12T11:06:58.280Z,9.46
2019-04-12T11:09:25.071Z,10.02
2019-04-12T11:11:51.799Z,10.13
2019-04-12T11:14:18.544Z,10.19
2019-04-12T11:16:45.262Z,10.18
2019-04-12T11:19:11.998Z,10.19
2019-04-12T11:21:38.721Z,10.25
2019-04-12T11:24:05.523Z,10.27
2019-04-12T11:26:32.254Z,10.65
2019-04-12T11:28:59.011Z,10.73
2019-04-12T11:31:25.731Z,10.31
2019-04-12T11:33:52.474Z,10.26
2019-04-12T11:36:19.217Z,10.50
2019-04-12T11:38:45.972Z,10.29
2019-04-12T11:41:12.690Z,10.86
2019-04-12T11:43:39.432Z,10.98
2019-04-12T11:46:06.159Z,10.79
2019-04-12T11:48:32.888Z,11.02
2019-04-12T11:50:59.602Z,11.42
2019-04-12T11:53:26.332Z,11.36
2019-04-12T11:55:53.046Z,10.78
2019-04-12T11:58:33.204Z,11.27
2019-04-12T12:00:51.183Z,11.35
2019-04-12T12:03:34.147Z,11.48
2019-04-12T12:06:05.221Z,11.34
2019-04-12T12:08:42.740Z,11.54
2019-04-12T12:11:16.209Z,11.38
2019-04-12T12:13:56.389Z,12.04
2019-04-12T12:16:28.022Z,11.78
2019-04-12T12:18:58.766Z,11.83
2019-04-12T12:21:25.497Z,11.98
2019-04-12T12:23:52.238Z,11.53
2019-04-12T12:26:18.971Z,11.87
2019-04-12T12:28:45.697Z,12.01
2019-04-12T12:31:12.422Z,11.94
2019-04-12T12:33:39.149Z,11.67
2019-04-12T12:36:05.903Z,12.05
2019-04-12T12:38:32.970Z,11.65
2019-04-12T12:40:59.753Z,11.91
2019-04-12T12:43:26.430Z,11.88
2019-04-12T12:45:53.161Z,11.88
2019-04-12T12:48:19.889Z,11.89
2019-04-12T12:50:46.634Z,11.78
2019-04-12T12:53:13.351Z,12.03
2019-04-12T12:55:40.122Z,11.93
2019-04-12T12:58:07.682Z,11.89
2019-04-12T13:00:33.601Z,12.35
2019-04-12T13:03:00.330Z,12.05
2019-04-12T13:05:27.085Z,11.56
2019-04-12T13:07:53.861Z,11.68
2019-04-12T13:10:20.799Z,11.89
2019-04-12T13:12:47.530Z,12.45
2019-04-12T13:15:14.267Z,12.13
2019-04-12T13:17:40.990Z,11.83
2019-04-12T13:20:07.740Z,12.46
2019-04-12T13:22:34.466Z,12.42
2019-04-12T13:25:01.211Z,12.40
2019-04-12T13:27:27.937Z,12.20
2019-04-12T13:30:06.027Z,12.16
2019-04-12T13:32:41.870Z,12.11
2019-04-12T13:35:14.402Z,12.29
2019-04-12T13:37:47.142Z,12.27
2019-04-12T13:40:21.034Z,12.63
2019-04-12T13:42:49.496Z,12.59
2019-04-12T13:45:21.082Z,12.06
2019-04-12T13:47:47.842Z,12.49
2019-04-12T13:50:14.590Z,12.25
2019-04-12T13:52:41.331Z,12.21
2019-04-12T13:55:08.063Z,12.43
2019-04-12T13:57:34.781Z,12.02
2019-04-12T14:00:01.526Z,11.83
2019-04-12T14:02:28.266Z,11.72
2019-04-12T14:04:56.423Z,11.47
2019-04-12T14:07:21.718Z,11.43
2019-04-12T14:09:48.506Z,11.84
2019-04-12T14:12:15.238Z,12.05
2019-04-12T14:14:41.985Z,12.02
2019-04-12T14:17:08.714Z,11.79
2019-04-12T14:19:35.457Z,11.89
2019-04-12T14:22:02.203Z,12.07
2019-04-12T14:24:28.958Z,12.78
2019-04-12T14:26:55.774Z,12.62
2019-04-12T14:29:22.506Z,11.94
2019-04-12T14:31:49.250Z,11.55
2019-04-12T14:34:31.378Z,11.62
2019-04-12T14:37:04.499Z,11.83
2019-04-12T14:39:31.400Z,11.66
2019-04-12T14:41:58.042Z,11.60
2019-04-12T14:44:38.870Z,11.24
2019-04-12T14:47:10.314Z,10.97
2019-04-12T14:49:37.126Z,10.72
2019-04-12T14:52:03.874Z,10.67
2019-04-12T14:54:30.591Z,10.62
2019-04-12T14:56:57.325Z,10.89
2019-04-12T14:59:24.046Z,10.90
2019-04-12T15:01:50.814Z,10.96
2019-04-12T15:04:17.538Z,10.92
2019-04-12T15:06:44.383Z,10.80
2019-04-12T15:09:11.090Z,10.67
2019-04-12T15:11:37.823Z,10.50
2019-04-12T15:14:04.915Z,10.26
2019-04-12T15:16:33.440Z,10.22
2019-04-12T15:18:58.447Z,10.05
2019-04-12T15:21:25.199Z,9.82
2019-04-12T15:23:51.934Z,9.92
2019-04-12T15:26:18.695Z,9.92
2019-04-12T15:28:45.413Z,9.90
2019-04-12T15:31:12.182Z,9.83
2019-04-12T15:33:39.026Z,9.69
2019-04-12T15:36:05.769Z,9.59
2019-04-12T15:38:32.498Z,9.40
2019-04-12T15:40:59.254Z,9.37
2019-04-12T15:43:25.991Z,9.37
2019-04-12T15:45:52.748Z,9.41
2019-04-12T15:48:19.470Z,9.47
2019-04-12T15:50:46.267Z,9.44
2019-04-12T15:53:12.990Z,9.34
2019-04-12T15:55:39.735Z,9.23
2019-04-12T15:58:06.464Z,9.05
2019-04-12T16:00:44.158Z,9.01
2019-04-12T16:03:10.971Z,9.13
2019-04-12T16:05:37.746Z,8.93
2019-04-12T16:08:04.556Z,8.92
2019-04-12T16:10:31.526Z,8.84
2019-04-12T16:13:04.711Z,8.98
2019-04-12T16:16:01.618Z,8.79
2019-04-12T16:18:28.337Z,8.72
2019-04-12T16:20:55.093Z,8.75
2019-04-12T16:23:21.818Z,8.66
2019-04-12T16:25:48.606Z,8.55
2019-04-12T16:28:34.967Z,8.46
2019-04-12T16:31:08.670Z,8.48
2019-04-12T16:33:51.478Z,8.59
2019-04-12T16:36:28.466Z,8.56
2019-04-12T16:38:55.186Z,8.23
2019-04-12T16:41:21.939Z,8.22
2019-04-12T16:43:48.665Z,8.30
2019-04-12T16:46:34.187Z,8.36
2019-04-12T16:48:54.623Z,8.46
2019-04-12T16:51:21.381Z,8.29
2019-04-12T16:53:48.099Z,8.09
2019-04-12T16:56:14.857Z,7.90
2019-04-12T16:58:41.583Z,7.80
2019-04-12T17:01:08.319Z,7.74
2019-04-12T17:03:35.046Z,7.71
2019-04-12T17:06:01.782Z,7.66
2019-04-12T17:08:28.606Z,7.56
2019-04-12T17:10:55.337Z,7.53
2019-04-12T17:13:22.063Z,7.45
2019-04-12T17:15:48.808Z,7.41
2019-04-12T17:18:15.518Z,7.50
2019-04-12T17:20:42.258Z,7.43
2019-04-12T17:23:08.982Z,7.42
2019-04-12T17:25:35.795Z,7.42
2019-04-12T17:28:02.518Z,7.29
2019-04-12T17:30:29.366Z,7.30
2019-04-12T17:32:56.097Z,7.30
2019-04-12T17:35:22.824Z,7.23
2019-04-12T17:37:49.562Z,7.20
2019-04-12T17:40:16.291Z,7.12
2019-04-12T17:42:43.022Z,7.01
2019-04-12T17:45:09.747Z,6.99
2019-04-12T17:47:36.514Z,7.02
2019-04-12T17:50:11.823Z,7.00
2019-04-12T17:52:44.448Z,6.95
2019-04-12T17:55:19.657Z,6.91
2019-04-12T17:57:46.399Z,6.91
2019-04-12T18:00:23.522Z,6.89
2019-04-12T18:02:50.254Z,6.87
2019-04-12T18:05:16.987Z,6.81
2019-04-12T18:07:43.734Z,6.74
2019-04-12T18:10:10.479Z,6.74
2019-04-12T18:12:37.223Z,6.73
2019-04-12T18:15:04.410Z,6.72
2019-04-12T18:17:31.168Z,6.68
2019-04-12T18:19:57.890Z,6.66
2019-04-12T18:22:24.647Z,6.62
2019-04-12T18:24:51.389Z,6.61
2019-04-12T18:27:18.122Z,6.60
2019-04-12T18:29:44.848Z,6.64
2019-04-12T18:32:14.677Z,6.59
2019-04-12T18:34:38.309Z,6.56
2019-04-12T18:37:05.060Z,6.53
2019-04-12T18:39:31.820Z,6.49
2019-04-12T18:41:58.732Z,6.50
2019-04-12T18:44:25.459Z,6.46
2019-04-12T18:46:52.207Z,6.45
2019-04-12T18:49:18.958Z,6.44
2019-04-12T18:51:45.703Z,6.45
2019-04-12T18:54:12.450Z,6.44
2019-04-12T18:56:39.194Z,6.40
2019-04-12T18:59:05.931Z,6.36
2019-04-12T19:01:32.674Z,6.36
2019-04-12T19:03:59.411Z,6.30
2019-04-12T19:06:26.155Z,6.25
2019-04-12T19:08:52.881Z,6.22
2019-04-12T19:11:19.621Z,6.23
2019-04-12T19:13:46.355Z,6.23
2019-04-12T19:16:13.114Z,6.20
2019-04-12T19:18:39.830Z,6.21
2019-04-12T19:21:06.563Z,6.15
2019-04-12T19:23:33.318Z,6.16
2019-04-12T19:26:00.046Z,6.14
2019-04-12T19:28:26.791Z,6.14
2019-04-12T19:30:53.783Z,6.16
2019-04-12T19:33:41.057Z,6.17
2019-04-12T19:36:16.048Z,6.14
2019-04-12T19:39:04.312Z,6.09
2019-04-12T19:41:32.066Z,6.11
2019-04-12T19:43:58.802Z,6.14
2019-04-12T19:46:25.550Z,6.13
2019-04-12T19:48:52.294Z,6.09
2019-04-12T19:51:19.045Z,6.14
2019-04-12T19:53:46.088Z,6.08
2019-04-12T19:56:12.527Z,6.06
2019-04-12T19:58:39.274Z,5.99
2019-04-12T20:01:05.994Z,6.01
2019-04-12T20:03:32.746Z,5.98
2019-04-12T20:05:59.461Z,6.02
2019-04-12T20:08:26.214Z,5.99
2019-04-12T20:10:52.937Z,5.99
2019-04-12T20:13:19.670Z,5.95
2019-04-12T20:15:46.393Z,5.97
2019-04-12T20:18:13.142Z,5.97
2019-04-12T20:20:39.874Z,5.97
2019-04-12T20:23:06.626Z,6.05
2019-04-12T20:25:33.355Z,6.05
2019-04-12T20:28:00.098Z,6.03
2019-04-12T20:30:26.808Z,6.11
2019-04-12T20:33:03.666Z,5.94
2019-04-12T20:35:20.450Z,5.85
2019-04-12T20:37:47.189Z,6.02
2019-04-12T20:40:14.018Z,5.86
2019-04-12T20:42:40.819Z,5.89
2019-04-12T20:45:07.591Z,5.80
2019-04-12T20:47:34.395Z,5.75
2019-04-12T20:50:01.146Z,5.77
2019-04-12T20:52:27.900Z,5.68
2019-04-12T20:54:54.618Z,5.77
2019-04-12T20:57:21.795Z,5.74
2019-04-12T20:59:48.506Z,5.76
2019-04-12T21:02:15.264Z,5.73
2019-04-12T21:04:41.972Z,5.70
2019-04-12T21:07:08.722Z,5.75
2019-04-12T21:09:35.454Z,5.69
2019-04-12T21:12:02.302Z,5.65
2019-04-12T21:14:28.937Z,5.70
2019-04-12T21:16:55.689Z,5.69
2019-04-12T21:19:22.442Z,5.66
2019-04-12T21:21:49.166Z,5.67
2019-04-12T21:24:15.923Z,5.68
2019-04-12T21:26:42.665Z,5.68
2019-04-12T21:29:09.405Z,5.66
2019-04-12T21:31:36.143Z,5.75
2019-04-12T21:34:02.877Z,5.71
2019-04-12T21:36:29.670Z,5.64
2019-04-12T21:38:56.439Z,5.65
2019-04-12T21:41:23.166Z,5.59
2019-04-12T21:43:49.898Z,5.59
2019-04-12T21:46:19.880Z,5.62
2019-04-12T21:48:43.362Z,5.55
2019-04-12T21:51:10.087Z,5.52
2019-04-12T21:53:36.826Z,5.54
2019-04-12T21:56:03.562Z,5.53
2019-04-12T21:58:30.319Z,5.53
2019-04-12T22:00:58.170Z,5.58
2019-04-12T22:03:24.910Z,5.49
2019-04-12T22:05:51.643Z,5.52
2019-04-12T22:08:18.393Z,5.59
2019-04-12T22:10:45.121Z,5.61
2019-04-12T22:13:11.903Z,5.62
2019-04-12T22:15:38.588Z,5.56
2019-04-12T22:18:05.330Z,5.48
2019-04-12T22:20:32.047Z,5.42
2019-04-12T22:22:58.790Z,5.41
2019-04-12T22:25:25.515Z,5.34
2019-04-12T22:27:52.268Z,5.34
2019-04-12T22:30:18.989Z,5.33
2019-04-12T22:32:45.714Z,5.36
2019-04-12T22:35:12.453Z,5.37
2019-04-12T22:37:39.198Z,5.24
2019-04-12T22:40:05.934Z,5.25
2019-04-12T22:42:32.706Z,5.27
2019-04-12T22:44:59.390Z,5.26
2019-04-12T22:47:26.109Z,5.24
2019-04-12T22:49:52.850Z,5.19
2019-04-12T22:52:19.570Z,5.25
2019-04-12T22:54:46.322Z,5.35
2019-04-12T22:57:13.036Z,5.30
2019-04-12T22:59:39.766Z,5.25
2019-04-12T23:02:06.482Z,5.27
2019-04-12T23:04:33.221Z,5.21
2019-04-12T23:06:59.951Z,5.19
2019-04-12T23:09:26.686Z,5.13
2019-04-12T23:11:53.399Z,5.17
2019-04-12T23:14:20.143Z,5.13
2019-04-12T23:16:46.855Z,5.08
2019-04-12T23:19:13.703Z,5.08
2019-04-12T23:21:40.438Z,5.12
2019-04-12T23:24:07.179Z,5.11
2019-04-12T23:26:33.906Z,5.10
2019-04-12T23:29:00.642Z,5.07
2019-04-12T23:31:30.311Z,5.05
2019-04-12T23:34:18.510Z,5.05
2019-04-12T23:36:45.225Z,5.10
2019-04-12T23:39:11.970Z,5.02
2019-04-12T23:41:38.685Z,5.05
2019-04-12T23:44:05.426Z,5.01
2019-04-12T23:46:32.159Z,5.01
2019-04-12T23:48:58.894Z,5.03
2019-04-12T23:51:25.624Z,5.02
2019-04-12T23:53:52.467Z,5.07
2019-04-12T23:56:19.191Z,5.02
2019-04-12T23:58:45.942Z,4.94
